sensor_id;sensor_type;location;lat;lon;timestamp;P1;durP1;ratioP1;P2;durP2;ratioP2
17496;SDS011;62150;43.582;1.456;2022-07-10T05:47:01;4.95;;;2.78;;
17496;SDS011;62150;43.582;1.456;2022-07-10T05:49:28;5.80;;;3.13;;
17496;SDS011;62150;43.582;1.456;2022-07-10T05:51:57;5.97;;;2.80;;
17496;SDS011;62150;43.582;1.456;2022-07-10T05:54:24;7.50;;;3.10;;
17496;SDS011;62150;43.582;1.456;2022-07-10T05:56:52;6.60;;;3.30;;
17496;SDS011;62150;43.582;1.456;2022-07-10T05:59:19;6.07;;;2.95;;
17496;SDS011;62150;43.582;1.456;2022-07-10T06:01:47;5.78;;;3.05;;
17496;SDS011;62150;43.582;1.456;2022-07-10T06:04:16;5.20;;;3.20;;
17496;SDS011;62150;43.582;1.456;2022-07-10T06:06:43;6.68;;;3.33;;
17496;SDS011;62150;43.582;1.456;2022-07-10T06:09:12;6.25;;;3.00;;
17496;SDS011;62150;43.582;1.456;2022-07-10T06:11:39;7.18;;;3.08;;
17496;SDS011;62150;43.582;1.456;2022-07-10T06:14:09;5.57;;;3.10;;
17496;SDS011;62150;43.582;1.456;2022-07-10T06:16:36;6.50;;;3.00;;
17496;SDS011;62150;43.582;1.456;2022-07-10T06:19:04;6.30;;;3.10;;
17496;SDS011;62150;43.582;1.456;2022-07-10T06:21:33;6.45;;;3.20;;
17496;SDS011;62150;43.582;1.456;2022-07-10T06:24:01;7.07;;;3.25;;
17496;SDS011;62150;43.582;1.456;2022-07-10T06:26:28;6.65;;;3.20;;
17496;SDS011;62150;43.582;1.456;2022-07-10T06:28:56;5.80;;;3.20;;
17496;SDS011;62150;43.582;1.456;2022-07-10T06:31:23;5.85;;;2.85;;
17496;SDS011;62150;43.582;1.456;2022-07-10T06:33:51;4.57;;;2.80;;
17496;SDS011;62150;43.582;1.456;2022-07-10T06:36:18;6.53;;;3.22;;
17496;SDS011;62150;43.582;1.456;2022-07-10T06:38:50;5.38;;;2.95;;
17496;SDS011;62150;43.582;1.456;2022-07-10T06:41:18;5.97;;;3.08;;
17496;SDS011;62150;43.582;1.456;2022-07-10T06:43:45;6.20;;;3.15;;
17496;SDS011;62150;43.582;1.456;2022-07-10T06:46:13;6.68;;;3.22;;
17496;SDS011;62150;43.582;1.456;2022-07-10T06:48:40;6.57;;;3.20;;
17496;SDS011;62150;43.582;1.456;2022-07-10T06:51:08;5.80;;;2.90;;
17496;SDS011;62150;43.582;1.456;2022-07-10T06:53:36;7.38;;;3.30;;
17496;SDS011;62150;43.582;1.456;2022-07-10T06:56:05;5.30;;;3.15;;
17496;SDS011;62150;43.582;1.456;2022-07-10T06:58:33;7.20;;;3.60;;
17496;SDS011;62150;43.582;1.456;2022-07-10T07:01:01;6.88;;;3.60;;
17496;SDS011;62150;43.582;1.456;2022-07-10T07:03:28;5.30;;;3.17;;
17496;SDS011;62150;43.582;1.456;2022-07-10T07:05:56;5.63;;;2.90;;
17496;SDS011;62150;43.582;1.456;2022-07-10T07:08:24;5.93;;;3.10;;
17496;SDS011;62150;43.582;1.456;2022-07-10T07:10:54;5.13;;;3.03;;
17496;SDS011;62150;43.582;1.456;2022-07-10T07:13:22;7.22;;;3.20;;
17496;SDS011;62150;43.582;1.456;2022-07-10T07:15:50;5.55;;;3.25;;
17496;SDS011;62150;43.582;1.456;2022-07-10T07:18:24;6.05;;;2.95;;
17496;SDS011;62150;43.582;1.456;2022-07-10T07:20:57;5.68;;;3.25;;
17496;SDS011;62150;43.582;1.456;2022-07-10T07:23:42;5.53;;;2.92;;
17496;SDS011;62150;43.582;1.456;2022-07-10T07:26:09;6.88;;;3.22;;
17496;SDS011;62150;43.582;1.456;2022-07-10T07:28:38;6.82;;;3.42;;
17496;SDS011;62150;43.582;1.456;2022-07-10T07:31:06;6.68;;;3.30;;
17496;SDS011;62150;43.582;1.456;2022-07-10T07:33:33;6.97;;;3.33;;
17496;SDS011;62150;43.582;1.456;2022-07-10T07:36:01;6.72;;;3.50;;
17496;SDS011;62150;43.582;1.456;2022-07-10T07:38:29;8.73;;;3.47;;
17496;SDS011;62150;43.582;1.456;2022-07-10T07:40:57;5.82;;;3.20;;
17496;SDS011;62150;43.582;1.456;2022-07-10T07:43:24;6.65;;;3.40;;
17496;SDS011;62150;43.582;1.456;2022-07-10T07:45:53;7.47;;;3.50;;
17496;SDS011;62150;43.582;1.456;2022-07-10T07:48:22;6.65;;;3.35;;
17496;SDS011;62150;43.582;1.456;2022-07-10T07:50:49;7.75;;;3.35;;
17496;SDS011;62150;43.582;1.456;2022-07-10T07:53:17;7.35;;;3.50;;
17496;SDS011;62150;43.582;1.456;2022-07-10T07:55:44;6.40;;;3.50;;
17496;SDS011;62150;43.582;1.456;2022-07-10T07:58:12;6.43;;;3.28;;
17496;SDS011;62150;43.582;1.456;2022-07-10T08:00:39;6.55;;;3.30;;
17496;SDS011;62150;43.582;1.456;2022-07-10T08:03:08;7.40;;;3.38;;
17496;SDS011;62150;43.582;1.456;2022-07-10T08:05:36;6.90;;;3.33;;
17496;SDS011;62150;43.582;1.456;2022-07-10T08:08:03;9.07;;;3.60;;
17496;SDS011;62150;43.582;1.456;2022-07-10T08:10:33;6.88;;;3.30;;
17496;SDS011;62150;43.582;1.456;2022-07-10T08:13:01;6.38;;;3.47;;
17496;SDS011;62150;43.582;1.456;2022-07-10T08:15:29;7.32;;;3.20;;
17496;SDS011;62150;43.582;1.456;2022-07-10T08:18:00;6.18;;;3.30;;
17496;SDS011;62150;43.582;1.456;2022-07-10T08:20:30;7.47;;;3.92;;
17496;SDS011;62150;43.582;1.456;2022-07-10T08:22:58;7.03;;;3.40;;
17496;SDS011;62150;43.582;1.456;2022-07-10T08:25:26;7.07;;;3.50;;
17496;SDS011;62150;43.582;1.456;2022-07-10T08:27:56;8.15;;;3.38;;
17496;SDS011;62150;43.582;1.456;2022-07-10T08:30:27;10.88;;;3.90;;
17496;SDS011;62150;43.582;1.456;2022-07-10T08:32:55;6.57;;;3.25;;
17496;SDS011;62150;43.582;1.456;2022-07-10T08:35:22;6.00;;;3.45;;
17496;SDS011;62150;43.582;1.456;2022-07-10T08:37:52;6.20;;;3.30;;
17496;SDS011;62150;43.582;1.456;2022-07-10T08:40:20;6.55;;;3.50;;
17496;SDS011;62150;43.582;1.456;2022-07-10T08:42:49;6.50;;;3.30;;
17496;SDS011;62150;43.582;1.456;2022-07-10T08:45:17;6.70;;;3.40;;
17496;SDS011;62150;43.582;1.456;2022-07-10T08:47:44;6.50;;;3.47;;
17496;SDS011;62150;43.582;1.456;2022-07-10T08:50:15;7.53;;;3.60;;
17496;SDS011;62150;43.582;1.456;2022-07-10T08:52:47;6.53;;;3.50;;
17496;SDS011;62150;43.582;1.456;2022-07-10T08:55:25;6.18;;;3.20;;
17496;SDS011;62150;43.582;1.456;2022-07-10T08:57:53;7.75;;;3.60;;
17496;SDS011;62150;43.582;1.456;2022-07-10T09:00:22;7.15;;;3.33;;
17496;SDS011;62150;43.582;1.456;2022-07-10T09:02:52;6.82;;;3.28;;
17496;SDS011;62150;43.582;1.456;2022-07-10T09:05:20;8.10;;;3.70;;
17496;SDS011;62150;43.582;1.456;2022-07-10T09:07:48;6.57;;;3.38;;
17496;SDS011;62150;43.582;1.456;2022-07-10T09:10:18;7.68;;;3.30;;
17496;SDS011;62150;43.582;1.456;2022-07-10T09:12:51;6.90;;;3.30;;
17496;SDS011;62150;43.582;1.456;2022-07-10T09:15:20;6.10;;;3.22;;
17496;SDS011;62150;43.582;1.456;2022-07-10T09:17:50;6.63;;;3.40;;
17496;SDS011;62150;43.582;1.456;2022-07-10T09:20:25;5.57;;;2.97;;
17496;SDS011;62150;43.582;1.456;2022-07-10T09:22:55;7.03;;;3.40;;
17496;SDS011;62150;43.582;1.456;2022-07-10T09:25:30;6.55;;;3.17;;
17496;SDS011;62150;43.582;1.456;2022-07-10T09:27:59;5.38;;;3.00;;
17496;SDS011;62150;43.582;1.456;2022-07-10T09:30:31;5.75;;;3.10;;
17496;SDS011;62150;43.582;1.456;2022-07-10T09:33:16;8.23;;;3.50;;
17496;SDS011;62150;43.582;1.456;2022-07-10T09:38:38;7.90;;;3.75;;
17496;SDS011;62150;43.582;1.456;2022-07-10T09:41:18;5.53;;;3.00;;
17496;SDS011;62150;43.582;1.456;2022-07-10T09:43:47;6.13;;;3.40;;
17496;SDS011;62150;43.582;1.456;2022-07-10T09:46:16;7.30;;;3.50;;
17496;SDS011;62150;43.582;1.456;2022-07-10T09:48:45;5.32;;;3.15;;
17496;SDS011;62150;43.582;1.456;2022-07-10T09:51:12;5.47;;;3.25;;
17496;SDS011;62150;43.582;1.456;2022-07-10T09:53:41;5.88;;;3.15;;
17496;SDS011;62150;43.582;1.456;2022-07-10T09:56:10;5.03;;;3.05;;
17496;SDS011;62150;43.582;1.456;2022-07-10T09:58:39;5.90;;;3.50;;
17496;SDS011;62150;43.582;1.456;2022-07-10T10:01:08;6.63;;;3.28;;
17496;SDS011;62150;43.582;1.456;2022-07-10T10:03:36;5.20;;;2.80;;
17496;SDS011;62150;43.582;1.456;2022-07-10T10:06:09;5.20;;;2.75;;
17496;SDS011;62150;43.582;1.456;2022-07-10T10:08:44;5.15;;;2.95;;
17496;SDS011;62150;43.582;1.456;2022-07-10T10:11:17;6.10;;;3.03;;
17496;SDS011;62150;43.582;1.456;2022-07-10T10:13:48;8.05;;;3.05;;
17496;SDS011;62150;43.582;1.456;2022-07-10T10:16:16;5.60;;;3.00;;
17496;SDS011;62150;43.582;1.456;2022-07-10T10:18:45;7.50;;;3.85;;
17496;SDS011;62150;43.582;1.456;2022-07-10T10:21:31;6.45;;;3.20;;
17496;SDS011;62150;43.582;1.456;2022-07-10T10:24:00;6.75;;;3.10;;
17496;SDS011;62150;43.582;1.456;2022-07-10T10:26:28;8.50;;;3.60;;
17496;SDS011;62150;43.582;1.456;2022-07-10T10:28:58;7.47;;;3.05;;
17496;SDS011;62150;43.582;1.456;2022-07-10T10:31:27;5.07;;;3.20;;
17496;SDS011;62150;43.582;1.456;2022-07-10T10:33:56;8.93;;;4.10;;
17496;SDS011;62150;43.582;1.456;2022-07-10T10:36:44;8.55;;;4.13;;
17496;SDS011;62150;43.582;1.456;2022-07-10T10:39:16;9.85;;;4.07;;
17496;SDS011;62150;43.582;1.456;2022-07-10T10:41:46;6.45;;;3.50;;
17496;SDS011;62150;43.582;1.456;2022-07-10T10:44:27;5.95;;;3.38;;
17496;SDS011;62150;43.582;1.456;2022-07-10T10:47:03;7.70;;;3.70;;
17496;SDS011;62150;43.582;1.456;2022-07-10T10:49:48;7.40;;;3.30;;
17496;SDS011;62150;43.582;1.456;2022-07-10T10:52:26;7.63;;;3.35;;
17496;SDS011;62150;43.582;1.456;2022-07-10T10:57:44;5.88;;;3.33;;
17496;SDS011;62150;43.582;1.456;2022-07-10T11:03:12;7.47;;;3.17;;
17496;SDS011;62150;43.582;1.456;2022-07-10T11:05:42;6.88;;;3.40;;
17496;SDS011;62150;43.582;1.456;2022-07-10T11:08:11;5.55;;;3.30;;
17496;SDS011;62150;43.582;1.456;2022-07-10T11:10:40;6.32;;;3.28;;
17496;SDS011;62150;43.582;1.456;2022-07-10T11:13:09;6.57;;;3.20;;
17496;SDS011;62150;43.582;1.456;2022-07-10T11:15:39;5.95;;;3.03;;
17496;SDS011;62150;43.582;1.456;2022-07-10T11:18:08;5.85;;;2.95;;
17496;SDS011;62150;43.582;1.456;2022-07-10T11:20:37;6.88;;;3.40;;
17496;SDS011;62150;43.582;1.456;2022-07-10T11:23:09;6.90;;;3.45;;
17496;SDS011;62150;43.582;1.456;2022-07-10T11:25:48;5.65;;;2.92;;
17496;SDS011;62150;43.582;1.456;2022-07-10T11:28:28;5.53;;;3.00;;
17496;SDS011;62150;43.582;1.456;2022-07-10T11:31:08;5.57;;;3.10;;
17496;SDS011;62150;43.582;1.456;2022-07-10T11:33:39;5.15;;;2.95;;
17496;SDS011;62150;43.582;1.456;2022-07-10T11:36:09;6.32;;;3.03;;
17496;SDS011;62150;43.582;1.456;2022-07-10T11:38:38;7.22;;;3.33;;
17496;SDS011;62150;43.582;1.456;2022-07-10T11:41:11;4.70;;;2.95;;
17496;SDS011;62150;43.582;1.456;2022-07-10T11:43:47;4.78;;;2.80;;
17496;SDS011;62150;43.582;1.456;2022-07-10T11:46:30;4.13;;;2.78;;
17496;SDS011;62150;43.582;1.456;2022-07-10T11:48:59;4.40;;;2.90;;
17496;SDS011;62150;43.582;1.456;2022-07-10T11:51:31;4.82;;;2.80;;
17496;SDS011;62150;43.582;1.456;2022-07-10T11:54:03;4.65;;;3.08;;
17496;SDS011;62150;43.582;1.456;2022-07-10T11:56:33;4.53;;;2.80;;
17496;SDS011;62150;43.582;1.456;2022-07-10T11:59:02;4.35;;;2.63;;
17496;SDS011;62150;43.582;1.456;2022-07-10T12:01:33;4.78;;;2.63;;
17496;SDS011;62150;43.582;1.456;2022-07-10T12:04:06;3.53;;;2.40;;
17496;SDS011;62150;43.582;1.456;2022-07-10T12:06:35;4.53;;;2.70;;
17496;SDS011;62150;43.582;1.456;2022-07-10T12:09:05;4.65;;;2.60;;
17496;SDS011;62150;43.582;1.456;2022-07-10T12:11:33;3.67;;;2.60;;
17496;SDS011;62150;43.582;1.456;2022-07-10T12:14:08;4.88;;;2.60;;
17496;SDS011;62150;43.582;1.456;2022-07-10T12:16:41;4.43;;;2.60;;
17496;SDS011;62150;43.582;1.456;2022-07-10T12:19:11;4.47;;;2.50;;
17496;SDS011;62150;43.582;1.456;2022-07-10T12:21:40;3.45;;;2.47;;
17496;SDS011;62150;43.582;1.456;2022-07-10T12:24:09;4.47;;;2.65;;
17496;SDS011;62150;43.582;1.456;2022-07-10T12:26:37;3.83;;;2.78;;
17496;SDS011;62150;43.582;1.456;2022-07-10T12:29:10;4.75;;;2.70;;
17496;SDS011;62150;43.582;1.456;2022-07-10T12:31:47;3.97;;;2.63;;
17496;SDS011;62150;43.582;1.456;2022-07-10T12:34:16;3.63;;;2.50;;
17496;SDS011;62150;43.582;1.456;2022-07-10T12:36:45;4.80;;;2.60;;
17496;SDS011;62150;43.582;1.456;2022-07-10T12:39:15;4.65;;;2.60;;
17496;SDS011;62150;43.582;1.456;2022-07-10T12:41:53;4.22;;;2.63;;
17496;SDS011;62150;43.582;1.456;2022-07-10T12:44:36;4.10;;;2.40;;
17496;SDS011;62150;43.582;1.456;2022-07-10T12:47:07;3.33;;;2.40;;
17496;SDS011;62150;43.582;1.456;2022-07-10T12:49:49;4.00;;;2.42;;
17496;SDS011;62150;43.582;1.456;2022-07-10T12:52:21;6.57;;;2.72;;
17496;SDS011;62150;43.582;1.456;2022-07-10T12:55:04;3.95;;;2.50;;
17496;SDS011;62150;43.582;1.456;2022-07-10T12:57:44;5.05;;;2.70;;
17496;SDS011;62150;43.582;1.456;2022-07-10T13:00:16;4.05;;;2.75;;
17496;SDS011;62150;43.582;1.456;2022-07-10T13:02:48;3.63;;;2.50;;
17496;SDS011;62150;43.582;1.456;2022-07-10T13:05:27;4.47;;;2.80;;
17496;SDS011;62150;43.582;1.456;2022-07-10T13:08:06;3.90;;;2.67;;
17496;SDS011;62150;43.582;1.456;2022-07-10T13:10:36;4.00;;;2.45;;
17496;SDS011;62150;43.582;1.456;2022-07-10T13:13:04;3.60;;;2.38;;
17496;SDS011;62150;43.582;1.456;2022-07-10T13:15:32;3.80;;;2.58;;
17496;SDS011;62150;43.582;1.456;2022-07-10T13:18:06;4.45;;;2.72;;
17496;SDS011;62150;43.582;1.456;2022-07-10T13:20:34;5.88;;;2.90;;
17496;SDS011;62150;43.582;1.456;2022-07-10T13:23:01;4.20;;;2.60;;
17496;SDS011;62150;43.582;1.456;2022-07-10T13:25:29;4.10;;;2.67;;
17496;SDS011;62150;43.582;1.456;2022-07-10T13:27:57;3.30;;;2.40;;
17496;SDS011;62150;43.582;1.456;2022-07-10T13:30:25;4.07;;;2.58;;
17496;SDS011;62150;43.582;1.456;2022-07-10T13:32:52;3.40;;;2.40;;
17496;SDS011;62150;43.582;1.456;2022-07-10T13:35:21;3.90;;;2.70;;
17496;SDS011;62150;43.582;1.456;2022-07-10T13:37:49;3.42;;;2.38;;
17496;SDS011;62150;43.582;1.456;2022-07-10T13:40:17;3.05;;;2.35;;
17496;SDS011;62150;43.582;1.456;2022-07-10T13:42:44;3.78;;;2.45;;
17496;SDS011;62150;43.582;1.456;2022-07-10T13:45:12;3.45;;;2.20;;
17496;SDS011;62150;43.582;1.456;2022-07-10T13:47:40;3.83;;;2.40;;
17496;SDS011;62150;43.582;1.456;2022-07-10T13:50:07;4.65;;;2.50;;
17496;SDS011;62150;43.582;1.456;2022-07-10T13:52:36;3.28;;;2.20;;
17496;SDS011;62150;43.582;1.456;2022-07-10T13:55:04;2.72;;;2.10;;
17496;SDS011;62150;43.582;1.456;2022-07-10T13:57:35;2.40;;;2.20;;
17496;SDS011;62150;43.582;1.456;2022-07-10T14:00:03;2.63;;;2.22;;
17496;SDS011;62150;43.582;1.456;2022-07-10T14:02:32;3.45;;;2.40;;
17496;SDS011;62150;43.582;1.456;2022-07-10T14:05:00;3.35;;;2.35;;
17496;SDS011;62150;43.582;1.456;2022-07-10T14:07:27;4.90;;;2.60;;
17496;SDS011;62150;43.582;1.456;2022-07-10T14:09:56;3.67;;;2.33;;
17496;SDS011;62150;43.582;1.456;2022-07-10T14:12:24;2.95;;;2.20;;
17496;SDS011;62150;43.582;1.456;2022-07-10T14:14:52;3.70;;;2.30;;
17496;SDS011;62150;43.582;1.456;2022-07-10T14:17:19;3.53;;;2.20;;
17496;SDS011;62150;43.582;1.456;2022-07-10T14:19:47;5.78;;;2.60;;
17496;SDS011;62150;43.582;1.456;2022-07-10T14:22:15;4.18;;;2.40;;
17496;SDS011;62150;43.582;1.456;2022-07-10T14:24:42;2.95;;;2.30;;
17496;SDS011;62150;43.582;1.456;2022-07-10T14:27:11;3.13;;;2.20;;
17496;SDS011;62150;43.582;1.456;2022-07-10T14:29:39;3.88;;;2.50;;
17496;SDS011;62150;43.582;1.456;2022-07-10T14:32:07;2.63;;;2.30;;
17496;SDS011;62150;43.582;1.456;2022-07-10T14:34:35;3.00;;;2.28;;
17496;SDS011;62150;43.582;1.456;2022-07-10T14:37:02;3.75;;;2.47;;
17496;SDS011;62150;43.582;1.456;2022-07-10T14:39:30;2.30;;;2.10;;
17496;SDS011;62150;43.582;1.456;2022-07-10T14:41:58;4.43;;;2.28;;
17496;SDS011;62150;43.582;1.456;2022-07-10T14:44:27;3.80;;;2.30;;
17496;SDS011;62150;43.582;1.456;2022-07-10T14:46:55;4.03;;;2.40;;
17496;SDS011;62150;43.582;1.456;2022-07-10T14:49:22;5.80;;;2.45;;
17496;SDS011;62150;43.582;1.456;2022-07-10T14:51:50;3.83;;;2.50;;
17496;SDS011;62150;43.582;1.456;2022-07-10T14:54:17;4.28;;;2.70;;
17496;SDS011;62150;43.582;1.456;2022-07-10T14:56:45;4.30;;;2.20;;
17496;SDS011;62150;43.582;1.456;2022-07-10T14:59:12;2.92;;;2.20;;
17496;SDS011;62150;43.582;1.456;2022-07-10T15:01:41;4.75;;;2.40;;
17496;SDS011;62150;43.582;1.456;2022-07-10T15:04:09;3.20;;;2.30;;
17496;SDS011;62150;43.582;1.456;2022-07-10T15:06:36;5.13;;;2.30;;
17496;SDS011;62150;43.582;1.456;2022-07-10T15:09:04;2.90;;;2.17;;
17496;SDS011;62150;43.582;1.456;2022-07-10T15:11:32;2.92;;;2.10;;
17496;SDS011;62150;43.582;1.456;2022-07-10T15:14:00;2.63;;;2.10;;
17496;SDS011;62150;43.582;1.456;2022-07-10T15:16:29;3.13;;;2.20;;
17496;SDS011;62150;43.582;1.456;2022-07-10T15:18:59;2.90;;;2.08;;
17496;SDS011;62150;43.582;1.456;2022-07-10T15:21:26;3.15;;;2.08;;
17496;SDS011;62150;43.582;1.456;2022-07-10T15:23:54;2.67;;;2.10;;
17496;SDS011;62150;43.582;1.456;2022-07-10T15:26:22;3.03;;;2.00;;
17496;SDS011;62150;43.582;1.456;2022-07-10T15:28:49;2.67;;;2.05;;
17496;SDS011;62150;43.582;1.456;2022-07-10T15:31:17;4.32;;;2.10;;
17496;SDS011;62150;43.582;1.456;2022-07-10T15:33:44;2.67;;;2.00;;
17496;SDS011;62150;43.582;1.456;2022-07-10T15:36:13;2.28;;;2.03;;
17496;SDS011;62150;43.582;1.456;2022-07-10T15:38:41;2.50;;;1.90;;
17496;SDS011;62150;43.582;1.456;2022-07-10T15:41:08;2.38;;;2.00;;
17496;SDS011;62150;43.582;1.456;2022-07-10T15:43:37;2.05;;;1.85;;
17496;SDS011;62150;43.582;1.456;2022-07-10T15:46:07;2.20;;;2.00;;
17496;SDS011;62150;43.582;1.456;2022-07-10T15:48:37;2.90;;;1.90;;
17496;SDS011;62150;43.582;1.456;2022-07-10T15:51:05;2.78;;;2.05;;
17496;SDS011;62150;43.582;1.456;2022-07-10T15:53:34;2.83;;;1.98;;
17496;SDS011;62150;43.582;1.456;2022-07-10T15:56:02;3.58;;;2.00;;
17496;SDS011;62150;43.582;1.456;2022-07-10T15:58:30;2.58;;;2.00;;
17496;SDS011;62150;43.582;1.456;2022-07-10T16:00:58;2.35;;;2.00;;
17496;SDS011;62150;43.582;1.456;2022-07-10T16:03:26;2.92;;;2.05;;
17496;SDS011;62150;43.582;1.456;2022-07-10T16:05:53;4.07;;;2.10;;
17496;SDS011;62150;43.582;1.456;2022-07-10T16:08:21;2.88;;;2.00;;
17496;SDS011;62150;43.582;1.456;2022-07-10T16:10:50;3.22;;;2.00;;
17496;SDS011;62150;43.582;1.456;2022-07-10T16:13:17;2.45;;;2.05;;
17496;SDS011;62150;43.582;1.456;2022-07-10T16:15:45;2.25;;;1.80;;
17496;SDS011;62150;43.582;1.456;2022-07-10T16:18:12;3.05;;;1.90;;
17496;SDS011;62150;43.582;1.456;2022-07-10T16:20:40;2.15;;;1.90;;
17496;SDS011;62150;43.582;1.456;2022-07-10T16:23:10;2.00;;;1.80;;
17496;SDS011;62150;43.582;1.456;2022-07-10T16:25:38;1.92;;;1.80;;
17496;SDS011;62150;43.582;1.456;2022-07-10T16:28:21;2.25;;;1.90;;
17496;SDS011;62150;43.582;1.456;2022-07-10T16:30:49;2.15;;;1.80;;
17496;SDS011;62150;43.582;1.456;2022-07-10T16:33:17;2.00;;;1.80;;
17496;SDS011;62150;43.582;1.456;2022-07-10T16:35:44;2.83;;;2.00;;
17496;SDS011;62150;43.582;1.456;2022-07-10T16:38:12;2.08;;;1.88;;
17496;SDS011;62150;43.582;1.456;2022-07-10T16:40:40;4.13;;;2.10;;
17496;SDS011;62150;43.582;1.456;2022-07-10T16:43:09;2.90;;;1.88;;
17496;SDS011;62150;43.582;1.456;2022-07-10T16:45:38;2.05;;;1.80;;
17496;SDS011;62150;43.582;1.456;2022-07-10T16:48:07;2.63;;;2.05;;
17496;SDS011;62150;43.582;1.456;2022-07-10T16:50:35;2.78;;;1.95;;
17496;SDS011;62150;43.582;1.456;2022-07-10T16:53:03;2.53;;;2.00;;
17496;SDS011;62150;43.582;1.456;2022-07-10T16:55:31;2.80;;;2.00;;
17496;SDS011;62150;43.582;1.456;2022-07-10T16:57:59;3.72;;;2.10;;
17496;SDS011;62150;43.582;1.456;2022-07-10T17:00:26;2.38;;;1.90;;
17496;SDS011;62150;43.582;1.456;2022-07-10T17:02:55;2.05;;;1.85;;
17496;SDS011;62150;43.582;1.456;2022-07-10T17:05:23;3.72;;;2.00;;
17496;SDS011;62150;43.582;1.456;2022-07-10T17:07:51;3.15;;;2.05;;
17496;SDS011;62150;43.582;1.456;2022-07-10T17:10:18;3.28;;;2.00;;
17496;SDS011;62150;43.582;1.456;2022-07-10T17:12:46;3.25;;;2.10;;
17496;SDS011;62150;43.582;1.456;2022-07-10T17:15:14;4.10;;;2.00;;
17496;SDS011;62150;43.582;1.456;2022-07-10T17:17:42;3.90;;;2.00;;
17496;SDS011;62150;43.582;1.456;2022-07-10T17:20:11;2.35;;;1.98;;
17496;SDS011;62150;43.582;1.456;2022-07-10T17:22:39;1.90;;;1.80;;
17496;SDS011;62150;43.582;1.456;2022-07-10T17:25:08;4.10;;;2.20;;
17496;SDS011;62150;43.582;1.456;2022-07-10T17:27:37;3.00;;;2.00;;
17496;SDS011;62150;43.582;1.456;2022-07-10T17:30:05;3.42;;;2.08;;
17496;SDS011;62150;43.582;1.456;2022-07-10T17:32:35;2.15;;;1.95;;
17496;SDS011;62150;43.582;1.456;2022-07-10T17:35:03;3.05;;;2.20;;
17496;SDS011;62150;43.582;1.456;2022-07-10T17:37:33;2.97;;;2.17;;
17496;SDS011;62150;43.582;1.456;2022-07-10T17:40:00;3.00;;;2.10;;
17496;SDS011;62150;43.582;1.456;2022-07-10T17:42:28;2.47;;;2.05;;
17496;SDS011;62150;43.582;1.456;2022-07-10T17:44:56;2.40;;;2.10;;
17496;SDS011;62150;43.582;1.456;2022-07-10T17:47:23;4.35;;;2.30;;
17496;SDS011;62150;43.582;1.456;2022-07-10T17:49:51;3.15;;;2.17;;
17496;SDS011;62150;43.582;1.456;2022-07-10T17:52:19;3.83;;;2.05;;
17496;SDS011;62150;43.582;1.456;2022-07-10T17:54:49;2.90;;;2.10;;
17496;SDS011;62150;43.582;1.456;2022-07-10T17:57:16;3.05;;;2.10;;
17496;SDS011;62150;43.582;1.456;2022-07-10T17:59:44;3.28;;;2.08;;
17496;SDS011;62150;43.582;1.456;2022-07-10T18:02:12;2.60;;;2.10;;
17496;SDS011;62150;43.582;1.456;2022-07-10T18:04:39;3.00;;;2.10;;
17496;SDS011;62150;43.582;1.456;2022-07-10T18:07:07;2.80;;;2.20;;
17496;SDS011;62150;43.582;1.456;2022-07-10T18:09:34;2.95;;;2.00;;
17496;SDS011;62150;43.582;1.456;2022-07-10T18:12:05;4.47;;;2.20;;
17496;SDS011;62150;43.582;1.456;2022-07-10T18:14:36;3.97;;;2.00;;
17496;SDS011;62150;43.582;1.456;2022-07-10T18:17:07;5.70;;;2.15;;
17496;SDS011;62150;43.582;1.456;2022-07-10T18:19:34;3.28;;;2.00;;
17496;SDS011;62150;43.582;1.456;2022-07-10T18:22:02;3.00;;;2.00;;
17496;SDS011;62150;43.582;1.456;2022-07-10T18:24:30;2.78;;;2.08;;
17496;SDS011;62150;43.582;1.456;2022-07-10T18:26:57;2.45;;;2.10;;
17496;SDS011;62150;43.582;1.456;2022-07-10T18:29:28;2.90;;;2.10;;
17496;SDS011;62150;43.582;1.456;2022-07-10T18:31:56;3.20;;;2.17;;
17496;SDS011;62150;43.582;1.456;2022-07-10T18:34:24;2.85;;;2.05;;
17496;SDS011;62150;43.582;1.456;2022-07-10T18:36:55;2.80;;;2.17;;
17496;SDS011;62150;43.582;1.456;2022-07-10T18:39:24;3.10;;;2.00;;
17496;SDS011;62150;43.582;1.456;2022-07-10T18:41:52;2.45;;;1.90;;
17496;SDS011;62150;43.582;1.456;2022-07-10T18:44:19;4.05;;;2.20;;
17496;SDS011;62150;43.582;1.456;2022-07-10T18:46:48;3.28;;;2.05;;
17496;SDS011;62150;43.582;1.456;2022-07-10T18:49:16;3.80;;;2.20;;
17496;SDS011;62150;43.582;1.456;2022-07-10T18:51:44;2.63;;;2.00;;
17496;SDS011;62150;43.582;1.456;2022-07-10T18:54:11;4.50;;;2.20;;
17496;SDS011;62150;43.582;1.456;2022-07-10T18:56:39;4.07;;;2.30;;
17496;SDS011;62150;43.582;1.456;2022-07-10T18:59:07;3.95;;;2.30;;
17496;SDS011;62150;43.582;1.456;2022-07-10T19:01:34;3.63;;;2.20;;
17496;SDS011;62150;43.582;1.456;2022-07-10T19:04:04;2.85;;;1.90;;
17496;SDS011;62150;43.582;1.456;2022-07-10T19:06:31;4.93;;;2.20;;
17496;SDS011;62150;43.582;1.456;2022-07-10T19:08:59;3.78;;;2.03;;
17496;SDS011;62150;43.582;1.456;2022-07-10T19:11:26;3.40;;;2.20;;
17496;SDS011;62150;43.582;1.456;2022-07-10T19:13:54;3.17;;;2.10;;
17496;SDS011;62150;43.582;1.456;2022-07-10T19:16:21;3.00;;;2.00;;
17496;SDS011;62150;43.582;1.456;2022-07-10T19:18:49;3.70;;;2.08;;
17496;SDS011;62150;43.582;1.456;2022-07-10T19:21:18;3.70;;;2.40;;
17496;SDS011;62150;43.582;1.456;2022-07-10T19:23:46;3.85;;;2.08;;
17496;SDS011;62150;43.582;1.456;2022-07-10T19:26:13;5.40;;;2.35;;
17496;SDS011;62150;43.582;1.456;2022-07-10T19:28:42;2.40;;;2.10;;
17496;SDS011;62150;43.582;1.456;2022-07-10T19:31:10;2.67;;;2.20;;
17496;SDS011;62150;43.582;1.456;2022-07-10T19:33:38;2.75;;;2.08;;
17496;SDS011;62150;43.582;1.456;2022-07-10T19:36:06;2.95;;;2.00;;
17496;SDS011;62150;43.582;1.456;2022-07-10T19:38:35;3.22;;;2.30;;
17496;SDS011;62150;43.582;1.456;2022-07-10T19:41:03;4.97;;;2.30;;
17496;SDS011;62150;43.582;1.456;2022-07-10T19:43:33;3.55;;;2.15;;
17496;SDS011;62150;43.582;1.456;2022-07-10T19:46:01;3.15;;;2.10;;
17496;SDS011;62150;43.582;1.456;2022-07-10T19:48:30;4.30;;;2.40;;
17496;SDS011;62150;43.582;1.456;2022-07-10T19:50:57;4.15;;;2.17;;
17496;SDS011;62150;43.582;1.456;2022-07-10T19:53:25;2.67;;;2.10;;
17496;SDS011;62150;43.582;1.456;2022-07-10T19:55:54;3.08;;;2.25;;
17496;SDS011;62150;43.582;1.456;2022-07-10T19:58:21;5.43;;;2.30;;
17496;SDS011;62150;43.582;1.456;2022-07-10T20:00:49;2.92;;;2.20;;
17496;SDS011;62150;43.582;1.456;2022-07-10T20:03:19;4.82;;;2.50;;
17496;SDS011;62150;43.582;1.456;2022-07-10T20:05:47;5.85;;;2.90;;
17496;SDS011;62150;43.582;1.456;2022-07-10T20:08:15;4.05;;;2.40;;
17496;SDS011;62150;43.582;1.456;2022-07-10T20:10:42;4.15;;;2.40;;
17496;SDS011;62150;43.582;1.456;2022-07-10T20:13:11;4.70;;;2.45;;
17496;SDS011;62150;43.582;1.456;2022-07-10T20:15:39;4.45;;;2.40;;
17496;SDS011;62150;43.582;1.456;2022-07-10T20:18:07;4.28;;;2.40;;
17496;SDS011;62150;43.582;1.456;2022-07-10T20:20:34;4.15;;;2.40;;
17496;SDS011;62150;43.582;1.456;2022-07-10T20:23:02;4.70;;;2.50;;
17496;SDS011;62150;43.582;1.456;2022-07-10T20:25:29;3.67;;;2.30;;
17496;SDS011;62150;43.582;1.456;2022-07-10T20:27:57;4.32;;;2.38;;
17496;SDS011;62150;43.582;1.456;2022-07-10T20:30:26;15.73;;;3.55;;
17496;SDS011;62150;43.582;1.456;2022-07-10T20:32:53;7.50;;;2.80;;
17496;SDS011;62150;43.582;1.456;2022-07-10T20:35:21;13.02;;;2.75;;
17496;SDS011;62150;43.582;1.456;2022-07-10T20:37:49;7.95;;;2.78;;
17496;SDS011;62150;43.582;1.456;2022-07-10T20:40:15;5.95;;;2.40;;
17496;SDS011;62150;43.582;1.456;2022-07-10T20:42:43;5.00;;;2.50;;
17496;SDS011;62150;43.582;1.456;2022-07-10T20:45:11;4.07;;;2.40;;
17496;SDS011;62150;43.582;1.456;2022-07-10T20:47:41;4.40;;;2.63;;
17496;SDS011;62150;43.582;1.456;2022-07-10T20:50:10;5.82;;;2.60;;
17496;SDS011;62150;43.582;1.456;2022-07-10T20:52:39;4.95;;;2.67;;
17496;SDS011;62150;43.582;1.456;2022-07-10T20:55:08;4.57;;;2.55;;